NWS Home NWS Lubbock West Texas Mesonet                      Daily Summary For 06/21/2018

Latest   N   C   S   Daily Sum   3hrΔ   24hrΔ   Soil Data 
Site Map   24hr Precip   72hr Precip   Google Plot

Previous  Date  


Station Time of Last Max Temp Min Temp Max/Min Dew Pt. Max/Min RH 10m Avg Wind 2m Avg Wind Peak Gust @ 33ft (mph) Potential Evapotranspiration
mm/day or in/day
Rain Sum Solar Rad
MJ/m^2
% Clear Day Red Flag
Abernathy 5ENE 08:20 PM 93 64 64 /55 95 / 29 6.4  (E) 4.6 24.2 mph 155° @ 0435 PM 6.1 or 0.24 0.00 27 84.3 0
Adrian 6WSW 08:20 PM 92 65 64 /48 91 / 22 8.1  (E) 5.9 19.3 mph 280° @ 0249 PM 6.4 or 0.25 0.00 25.7 79.6 0
Aiken 3WSW 08:20 PM 95 65 65 /59 94 / 30 5.1  (E) 3.3 13.8 mph 159° @ 0220 PM 6.4 or 0.25 0.00 28.4 88.8 0
Amarillo 15NNW 08:20 PM 96 66 68 /56 100 / 27 6.3  (E) 4 19.4 mph 244° @ 0237 PM 6.4 or 0.25 0.00 27.7 86.2 0
Amarillo 7SSE 08:20 PM 92 63 65 /57 97 / 31 5.7  (E) 3.7 20.5 mph 227° @ 0308 PM 5.6 or 0.22 0.00 24.6 76.5 0
Amarillo 9NNE 08:20 PM 93 66 68 /58 100 / 32 5.3  (E) 3.6 18.6 mph 219° @ 0524 PM 5.8 or 0.23 0.00 26.3 82 0
Amherst 1NE 08:20 PM 94 65 63 /52 92 / 25 6.9  (E) 5.3 17.8 mph 91° @ 1215 AM 6.1 or 0.24 0.00 25.3 78.7 0
Andrews 2E 08:20 PM 93 69 65 /53 85 / 27 5.2  (NE) 2.9 13.8 mph 119° @ 0240 PM 6.1 or 0.24 0.00 27.1 85.1 0
Anton 6SSW 08:20 PM 95 66 64 /55 91 / 28 7.2  (E) 5.7 19.7 mph 163° @ 1030 AM 6.4 or 0.25 0.00 26.1 81.7 0
Aspermont 3NE 08:20 PM 99 67 67 /57 81 / 26 3.5  (NE) 1.6 13.2 mph 328° @ 0155 PM 5.8 or 0.23 0.00 26.4 83.7 0
Big Bend NP - Persimmon Gap 08:20 PM 95 74 67 /50 75 / 23 13.6  (N) 11.5 37.1 mph 33° @ 0310 PM 8.4 or 0.33 0.00 29.1 92.2 0
Big Lake 1WNW 08:20 PM 98 70 67 /55 86 / 25 6.3  (E) 5 19.4 mph 63° @ 1244 PM 6.9 or 0.27 0.00 29 91.6 0
Bootleg 11WNW 08:20 PM 93 61 63 /51 96 / 25 7.3  (E) 5.4 21.2 mph 214° @ 0207 PM 5.8 or 0.23 0.00 23.9 73.8 0
Boys Ranch 1WSW 08:20 PM 95 65 65 /54 91 / 26 4.6  (E) 3.3 19.5 mph 245° @ 0304 PM 6.1 or 0.24 0.00 27.8 86.7 0
Brownfield 2S 08:20 PM 95 69 64 /54 77 / 27 7.6  (E) 6.1 15.6 mph 159° @ 0405 PM 6.9 or 0.27 0.00 28.5 89.4 0
Canadian 6E 08:20 PM 90 65 68 /56 94 / 42 6  (NW) 4 18.1 mph 19° @ 0415 AM 6.1 or 0.24 0.00 28.9 90.8 0
Caprock Canyons State Park 08:20 PM 95 66 66 /57 92 / 30 3.6  (NW) 2.1 12.6 mph 146° @ 0740 PM 5.1 or 0.2 0.00 22.1 69.5 0
Childress 2NNE 08:20 PM 92 68 67 /62 93 / 41 5.3  (E) 3.3 16.7 mph 12° @ 0850 AM 6.4 or 0.25 0.00 29.2 92.2 0
Clarendon 2WSW 08:20 PM 92 65 66 /60 92 / 37 5.7  (N) 3.8 18.4 mph 183° @ 0625 PM 5.8 or 0.23 0.00 26.1 81.6 0
Claude 12SW 08:20 PM 94 66 66 /57 92 / 30 5.9  (NE) 4.1 20 mph 245° @ 0514 PM 6.4 or 0.25 0.00 28.1 87.7 0
Clyde 2WNW 08:20 PM 96 69 71 /60 95 / 31 4.4  (SE) 3 12.9 mph 166° @ 0201 AM 6.1 or 0.24 0.00 27.2 86.3 0
Colorado City 5NW 08:20 PM 99 70 69 /58 88 / 27 5.1  (E) 3 17.8 mph 68° @ 1239 PM 6.4 or 0.25 0.00 26.5 84 0
Coyanosa 2N 08:20 PM 98 71 69 /56 92 / 26 6.9  (NE) 4.6 19.5 mph 99° @ 1215 PM 6.9 or 0.27 0.00 28.3 89.4 0
Crowell 1E 08:20 PM 99 72 67 /64 77 / 33 5.1  (E) 3.7 13.9 mph 295° @ 0438 PM 6.4 or 0.25 0.00 27.2 86.3 0
Dell City 08:20 PM 100 70 63 /49 70 / 19 8  (SE) 6.8 23.1 mph 139° @ 1217 PM 7.6 or 0.3 0.00 29.8 93.3 0
Denver City 7WNW 08:20 PM 93 67 62 /50 80 / 24 7.4  (SE) 5.1 18 mph 149° @ 0305 PM 6.9 or 0.27 0.00 29.3 91.6 0
Dimmitt 2NE 08:20 PM 93 63 63 /54 95 / 29 5.9  (E) 4.7 17.2 mph 158° @ 1130 AM 6.1 or 0.24 0.00 27.7 85.9 0
Dora NM 2SW 08:20 PM 94 63 62 /50 89 / 24 8.7  (SE) 6 21.3 mph 167° @ 1025 AM 6.9 or 0.27 0.00 27.9 86.4 0
Dozier 3W 08:20 PM 93 67 70 /61 89 / 42 5.4  (N) 3.2 16.2 mph 15° @ 0750 AM 6.4 or 0.25 0.00 29.5 92.8 0
Earth 9WSW 08:20 PM 96 61 64 /56 97 / 27 5.8  (E) 4.5 17.5 mph 116° @ 1057 AM 6.1 or 0.24 0.00 26.6 82.8 0
Endee NM 2SW 08:20 PM 95 62 65 /50 95 / 24 6  (E) 4.2 19.9 mph 257° @ 0340 PM 5.8 or 0.23 0.00 24.4 75.9 0
Estelline 3SSE 08:20 PM 94 69 69 /63 96 / 42 3.9  (E) 2 13.4 mph 25° @ 0909 AM 6.4 or 0.25 0.00 30.2 95.4 0
Floydada 2NNE 08:20 PM 93 64 65 /56 93 / 31 5.1  (E) 3.1 18.3 mph 192° @ 0310 PM 5.8 or 0.23 0.00 27.4 85.7 0
Fluvanna 3WNW 08:20 PM 96 69 62 /50 72 / 23 5.7  (NE) 4.4 17.1 mph 116° @ 0655 PM 5.6 or 0.22 0.00 21.5 67.6 0
Fort Chadbourne 08:20 PM 101 69 69 /59 91 / 26 4.6  (SE) 3.2 16.7 mph 144° @ 0517 PM 6.1 or 0.24 0.00 25.2 79.9 0
Fort Lancaster 08:20 PM 100 72 71 /57 89 / 25 6.2  (NE) 4.4 20.4 mph 101° @ 0452 PM 6.6 or 0.26 0.00 27.3 86.9 0
Fort Lewis CO 08:20 PM 86 45 38 /18 56 / 9 8.6  (N) 5.4 27.8 mph 245° @ 0104 PM 7.1 or 0.28 0.00 33.9 101.9 0
Fort McKavett 08:20 PM 99 65 68 /60 98 / 29 4.6  (E) 2.3 36.1 mph 70° @ 0217 PM 6.4 or 0.25 0.00 28.1 89.3 0
Friona 2NE 08:20 PM 93 62 63 /50 96 / 25 6  (E) 4.3 18.7 mph 209° @ 0300 PM 6.1 or 0.24 0.00 26.9 83.5 0
Fritch 1WNW 08:20 PM 93 65 65 /57 88 / 32 4.8  (E) 3.5 14.7 mph 244° @ 0441 PM 6.4 or 0.25 0.00 29.5 92.2 0
Gail 2ESE 08:20 PM 98 68 63 /52 77 / 23 4.9  (NE) 3 17.2 mph 69° @ 0110 PM 6.4 or 0.25 0.00 27.9 87.8 0
Goodlett 3W 08:20 PM 95 70 65 /58 84 / 32 6.1  (NE) 4.5 19.7 mph 307° @ 0400 PM 6.4 or 0.25 0.00 27.4 86.8 0
Goodnight 08:20 PM 94 66 67 /60 93 / 33 5.8  (NE) 4.5 21.1 mph 136° @ 0750 PM 5.8 or 0.23 0.00 25.8 80.5 0
Graham 5SSW 08:20 PM 96 69 65 /53 80 / 26 6.5  (NE) 4.4 23.7 mph 56° @ 1220 AM 6.9 or 0.27 0.00 30.1 94.4 0
Guadalupe Mtns Natl Park 08:20 PM 89 67 58 /49 71 / 28 7  (NE) 5.2 20.5 mph 101° @ 0206 PM 6.4 or 0.25 0.00 27.3 84.3 0
Guthrie 10WSW 08:20 PM 99 70 64 /51 78 / 22 5.2  (NE) 3 15.8 mph 309° @ 0305 PM 6.4 or 0.25 0.00 26 82.1 0
Happy 1E 08:20 PM 93 66 66 /58 95 / 31 5.8  (E) 3.8 18.9 mph 208° @ 0234 PM 6.1 or 0.24 0.00 28 87.2 0
Hart 3N 08:20 PM 93 63 65 /56 96 / 31 5.5  (E) 3.5 14 mph 100° @ 1230 AM 6.4 or 0.25 0.00 29.6 92 0
Haskell 1NW 08:20 PM 99 71 66 /51 76 / 21 3.8  (NE) 2.7 12.6 mph 322° @ 0320 PM 6.4 or 0.25 0.00 28.7 91 0
Hereford 2NW 08:20 PM 94 62 62 /47 93 / 22 5.6  (E) 4.5 28.7 mph 189° @ 0445 PM 5.8 or 0.23 0.00 25.9 80.4 0
Hobbs NM 5NW 08:20 PM 94 67 63 /52 82 / 26 6.9  (SE) 4.7 21.5 mph 111° @ 1041 AM 6.6 or 0.26 0.00 27.2 85 0
Jayton 1SSE 08:20 PM 97 71 66 /55 75 / 27 4.5  (NE) 2.8 11.5 mph 70° @ 1235 AM 6.6 or 0.26 0.00 30.3 95.8 0
Junction 1SSW 08:20 PM 97 65 70 /63 96 / 35 4.5  (E) 3.5 18.5 mph 150° @ 0617 PM 5.3 or 0.21 0.00 22.9 73 0
Knox City 3NW 08:20 PM 100 70 67 /59 79 / 28 3.8  (NE) 2.4 14.5 mph 252° @ 0340 PM 5.8 or 0.23 0.00 25.4 80.6 0
Lake Alan Henry 1NW 08:20 PM 99 69 65 /58 79 / 27 4.8  (NE) 2.5 15.7 mph 75° @ 0234 PM 6.1 or 0.24 0.00 26 82 0
Lamesa 2SE 08:20 PM 94 70 67 /56 79 / 29 4.7  (E) 2.5 15.5 mph 220° @ 0235 PM 5.8 or 0.23 0.00 26.5 83.1 0
Lesley 2S 08:20 PM 93 69 70 /63 96 / 44 5.5  (S) 3.9 16.7 mph 134° @ 0530 PM 6.4 or 0.25 0.00 30 94.5 0
Levelland 4S 08:20 PM 94 66 63 /51 83 / 24 7.2  (E) 5 19.7 mph 102° @ 1215 AM 6.6 or 0.26 0.00 28.7 89.8 0
Lomax 1SSE 08:20 PM 99 71 67 /55 79 / 24 5.2  (NE) 4 20.5 mph 160° @ 0439 PM 6.6 or 0.26 0.00 29.1 91.8 0
Lubbock 3WNW TTU 08:20 PM 97 68 63 /53 83 / 26 5.5  (E) 2.9 17 mph 145° @ 0350 PM 6.4 or 0.25 0.00 27.8 87 0
McCamey 1SSW 08:20 PM 99 74 69 /56 82 / 24 6.2  (NE) 5.5 21 mph 100° @ 0311 PM 6.6 or 0.26 0.00 26.7 84.6 0
McLean 1E 08:20 PM 91 65 63 /58 89 / 36 5.8  (NE) 4.1 18.8 mph 211° @ 0305 PM 6.1 or 0.24 0.00 28.6 89.5 0
Memphis 1NE 08:20 PM 92 69 68 /61 91 / 43 4.7  (N) 3.2 16.4 mph 3° @ 0820 AM 6.1 or 0.24 0.00 28.4 89.6 0
Menard 2NW 08:20 PM 95 65 70 /60 97 / 32 5  (E) 3.9 18.9 mph 100° @ 0226 PM 5.8 or 0.23 0.00 27.1 86.2 0
Mertzon 3NNE 08:20 PM 100 65 68 /58 86 / 27 4.9  (SE) 2.9 20.4 mph 53° @ 0255 PM 6.4 or 0.25 0.00 26.8 85 0
Morton 1ENE 08:20 PM 96 64 61 /50 85 / 22 7.5  (E) 4.9 29.1 mph 227° @ 0225 PM 6.9 or 0.27 0.00 28.8 89.6 0
Muleshoe 2SSW 08:20 PM 96 61 63 /50 95 / 22 6.6  (E) 4.7 19.2 mph 181° @ 1130 AM 6.4 or 0.25 0.00 27.3 84.9 0
New Home 08:20 PM 95 69 66 /54 79 / 27 7.1  (E) 5 18.3 mph 98° @ 1218 AM 6.4 or 0.25 0.00 26.4 82.6 0
Northfield 1S 08:20 PM 95 67 68 /63 94 / 36 4.1  (E) 2.1 12.9 mph 161° @ 0535 PM 5.8 or 0.23 0.00 27.6 86.9 0
O'Donnell 1N 08:20 PM 95 69 62 /49 76 / 22 6.3  (NE) 4.5 16.8 mph 71° @ 0150 AM 6.6 or 0.26 0.00 27.9 87.6 0
Odell 4ENE 08:20 PM 99 67 67 /58 90 / 27 5.5  (E) 3.7 19.9 mph 333° @ 0406 PM 6.1 or 0.24 0.00 24.9 79.1 0
Olton 6S 08:20 PM 93 64 64 /54 92 / 29 6.7  (E) 4.9 17 mph 120° @ 0550 PM 5.8 or 0.23 0.00 24.7 77 0
Paducah 10SW 08:20 PM 98 69 65 /56 83 / 27 4.6  (NE) 2.4 19.8 mph 136° @ 0355 PM 5.8 or 0.23 0.00 25.3 80 0
Palo Duro 4E (JA Ranch) 08:20 PM 95 66 69 /62 94 / 36 6.1  (N) 4 19.7 mph 223° @ 0319 PM 6.1 or 0.24 0.01 26.3 82.7 0
Palo Duro Canyon SP Floor 08:20 PM 98 67 68 /59 96 / 28 2.9  (SE) 1 15.6 mph 286° @ 0311 PM 5.3 or 0.21 0.01 24.1 75.5 0
Palo Duro Canyon State Park Rim 08:20 PM 94 67 65 /57 86 / 30 4  (NE) 1.8 17.9 mph 209° @ 0611 PM 5.3 or 0.21 0.00 24.6 76.6 0
Pampa 2E 08:20 PM 90 63 65 /59 96 / 42 5.2  (N) 3.4 17.5 mph 241° @ 0330 PM 5.6 or 0.22 0.00 27.2 85 0
Panhandle 1SSW 08:20 PM 91 64 67 /59 95 / 35 5.5  (NE) 4.1 15.7 mph 237° @ 0159 PM 5.8 or 0.23 0.00 27.9 86.7 0
Plains 3N 08:20 PM 94 66 62 /52 83 / 26 8  (SE) 6.5 19.1 mph 139° @ 0315 PM 6.4 or 0.25 0.00 25.5 79.5 0
Plainview 1S 08:20 PM 94 67 65 /57 92 / 31 4.6  (E) 3.4 15.9 mph 265° @ 0230 PM 5.8 or 0.23 0.00 26.6 83.1 0
Post 1NE 08:20 PM 99 68 63 /53 80 / 22 4.4  (NE) 2.3 27.4 mph 134° @ 0705 PM 6.6 or 0.26 0.00 29.8 93.8 0
Ralls 1SE 08:20 PM 94 67 63 /54 80 / 27 6.3  (E) 4.5 15.4 mph 168° @ 0355 PM 6.4 or 0.25 0.00 26.9 84.2 0
Reese Center 08:20 PM 94 66 63 /52 85 / 26 7.7  (E) 6 21.8 mph 186° @ 0525 PM 6.6 or 0.26 0.00 27.4 85.8 0
Roaring Springs 3N 08:20 PM 94 69 66 /59 89 / 33 6  (NE) 4.1 18.9 mph 145° @ 0520 PM 6.1 or 0.24 0.00 27.1 85.3 0
Rotan 5W 08:20 PM 100 70 67 /59 73 / 27 4.9  (NE) 3.7 16.4 mph 62° @ 0111 AM 6.4 or 0.25 0.00 26.5 83.9 0
San Angelo 7NW 08:20 PM 99 70 66 /52 83 / 22 5.4  (E) 3.8 20.8 mph 99° @ 0645 PM 6.4 or 0.25 0.00 26.8 85.2 0
Seagraves 1SW 08:20 PM 94 70 64 /56 76 / 30 6  (E) 3.9 16.3 mph 178° @ 0240 PM 6.1 or 0.24 0.00 26.2 82 0
Seminole 2NNE 08:20 PM 93 69 63 /53 77 / 28 6.8  (E) 4.7 17 mph 108° @ 0410 PM 6.6 or 0.26 0.00 28 87.7 0
Seymour 3NW 08:20 PM 100 71 69 /59 90 / 29 4.1  (E) 3 13.8 mph 278° @ 1115 AM 6.1 or 0.24 0.00 26.8 85.1 0
Sierra Blanca 1SSE 08:20 PM 99 71 59 /46 62 / 17 6.9  (E) 5.2 19.8 mph 103° @ 0617 PM 7.4 or 0.29 0.00 30.2 94 0
Silverton 7ESE 08:20 PM 95 62 65 /55 95 / 29 4.3  (E) 2.2 16.6 mph 242° @ 0310 PM 5.6 or 0.22 0.00 24.7 77.2 0
Slaton 2NE 08:20 PM 95 67 63 /51 79 / 24 5.4  (E) 4.2 16.7 mph 78° @ 1220 AM 5.8 or 0.23 0.00 25.2 78.8 0
Snyder 3E 08:20 PM 99 71 66 /54 83 / 24 4.5  (E) 1.9 19.4 mph 164° @ 0335 PM 6.4 or 0.25 0.00 28.6 90.2 0
Snyder 3SSW 08:20 PM 99 70 68 /56 81 / 27 4.3  (E) 2.9 14.7 mph 101° @ 0340 PM 6.1 or 0.24 0.00 25.8 81.5 0
Spur 1W 08:20 PM 94 68 63 /56 81 / 29 4.2  (NE) 2.3 11.9 mph 158° @ 1155 AM 6.4 or 0.25 0.00 30 94.7 0
St. Lawrence 5SW 08:20 PM 97 68 65 /52 78 / 24 6.7  (E) 5.2 20 mph 58° @ 0305 PM 6.4 or 0.25 0.00 26.1 82.4 0
Stamford 5ESE 08:20 PM 100 73 70 /62 83 / 30 5.4  (E) 1.6 20.3 mph 79° @ 1234 AM 6.4 or 0.25 0.00 26 82.5 0
Sterling City 4WSW 08:20 PM 99 67 68 /55 94 / 24 4.5  (N) 3 30.8 mph 97° @ 0454 PM 5.3 or 0.21 0.00 22.3 70.6 0
Stinnett 1NNW 08:20 PM 90 62 66 /56 89 / 40 5.8  (NE) 4.2 17.3 mph 272° @ 0433 PM 5.8 or 0.23 0.00 28.3 88.1 0
Sundown 8WSW 08:20 PM 95 66 62 /52 82 / 25 7.4  (SE) 4.8 19 mph 191° @ 0230 PM 6.4 or 0.25 0.00 25.7 80.2 0
Sweetwater 11SW 08:20 PM 97 69 69 /59 94 / 31 4.6  (NE) 3.4 14.7 mph 38° @ 1051 AM 5.3 or 0.21 0.00 22.3 70.5 0
Tahoka 3NNE 08:20 PM 97 68 64 /51 78 / 23 6.6  (E) 4.5 19.5 mph 77° @ 1207 AM 6.6 or 0.26 0.00 26.4 82.7 0
Tarzan 2WNW 08:20 PM 97 72 67 /57 80 / 27 5.3  (E) 2.9 14.2 mph 135° @ 0441 PM 6.4 or 0.25 0.00 27.3 86 0
Tatum NM 2SW 08:20 PM 96 62 60 /49 89 / 22 7.9  (SE) 3.6 23.2 mph 158° @ 0515 PM 6.6 or 0.26 0.00 25.8 80.2 0
Throckmorton 1SW 08:20 PM 99 71 73 /62 96 / 32 3.2  (E) 1.4 11.4 mph 317° @ 0440 PM 6.1 or 0.24 0.00 28.6 90.8 0
Tulia 2ENE 08:20 PM 92 64 68 /60 100 / 36 5.3  (E) 3.3 17.4 mph 231° @ 0315 PM 5.3 or 0.21 0.00 24.4 76 0
Turkey 2WSW 08:20 PM 93 69 68 /62 92 / 38 4.9  (NE) 3.3 14.2 mph 87° @ 0605 PM 5.3 or 0.21 0.00 23.3 73.3 0
Umbarger 3NNE 08:20 PM 94 63 64 /55 93 / 28 6.3  (E) 4.7 21.6 mph 245° @ 0410 PM 5.8 or 0.23 0.00 25.2 78.2 0
Van Horn 3ENE 08:20 PM 99 69 60 /46 66 / 18 6  (NE) 3.5 27.2 mph 21° @ 0540 PM 7.4 or 0.29 0.00 31.7 99.2 0
Vigo Park 08:20 PM 93 65 66 /59 96 / 34 5.7  (E) 3.5 24.6 mph 219° @ 0455 PM 5.6 or 0.22 0.00 25.3 79 0
Wall 2E 08:20 PM 100 69 69 /56 85 / 25 6.2  (SE) 4.9 21.4 mph 69° @ 0216 PM 6.9 or 0.27 0.00 27.9 88.7 0
Weinert 2NNE 08:20 PM 100 71 70 /57 77 / 25 4  (NE) 2.9 13.7 mph 92° @ 1255 AM 6.6 or 0.26 0.00 29.3 93.2 0
Welch 08:20 PM 96 69 67 /56 79 / 27 6.3  (E) 4.7 16.3 mph 84° @ 0129 AM 6.6 or 0.26 0.00 28.2 88.3 0
White River Lake 6NW 08:20 PM 96 68 63 /58 77 / 31 6.6  (NE) 4.8 19.5 mph 131° @ 0540 PM 6.9 or 0.27 0.00 29.1 91.6 0
Wolfforth 6SSW 08:20 PM 95 67 64 /54 84 / 28 7.5  (E) 5.4 21.1 mph 186° @ 0220 PM 6.4 or 0.25 0.00 24.3 75.9 0

WestTexas Mesonet Home    Site Map/Menu  National Weather Service Lubbock   Soil Data   Latest Observation Page   Previous  Date